You are listening to:
KMIA Approach #2 - Miami, Florida, United States

KMIA 251053Z 00000KT 8SM FEW015 FEW025 21/19 A3014 RMK AO2 SLP204 T02060194

If stream doesn't start automatically press the play button
If stream stops then reload player then press play